sensor_id;sensor_type;location;lat;lon;timestamp;P1;durP1;ratioP1;P2;durP2;ratioP2
50393;SDS011;36308;46.312;25.288;2022-07-06T00:02:13;12.88;;;10.95;;
50393;SDS011;36308;46.312;25.288;2022-07-06T00:04:39;13.55;;;10.35;;
50393;SDS011;36308;46.312;25.288;2022-07-06T00:07:04;14.98;;;10.77;;
50393;SDS011;36308;46.312;25.288;2022-07-06T00:09:29;13.63;;;11.20;;
50393;SDS011;36308;46.312;25.288;2022-07-06T00:11:55;12.70;;;10.90;;
50393;SDS011;36308;46.312;25.288;2022-07-06T00:14:20;13.95;;;10.93;;
50393;SDS011;36308;46.312;25.288;2022-07-06T00:16:52;12.60;;;11.18;;
50393;SDS011;36308;46.312;25.288;2022-07-06T00:19:17;14.82;;;11.10;;
50393;SDS011;36308;46.312;25.288;2022-07-06T00:21:43;13.02;;;10.20;;
50393;SDS011;36308;46.312;25.288;2022-07-06T00:24:08;17.60;;;10.85;;
50393;SDS011;36308;46.312;25.288;2022-07-06T00:26:34;13.15;;;10.93;;
50393;SDS011;36308;46.312;25.288;2022-07-06T00:28:59;12.85;;;10.27;;
50393;SDS011;36308;46.312;25.288;2022-07-06T00:31:25;14.93;;;10.50;;
50393;SDS011;36308;46.312;25.288;2022-07-06T00:33:50;13.63;;;10.85;;
50393;SDS011;36308;46.312;25.288;2022-07-06T00:36:16;13.65;;;11.00;;
50393;SDS011;36308;46.312;25.288;2022-07-06T00:38:41;12.73;;;10.52;;
50393;SDS011;36308;46.312;25.288;2022-07-06T00:41:07;16.60;;;12.32;;
50393;SDS011;36308;46.312;25.288;2022-07-06T00:46:13;16.75;;;11.63;;
50393;SDS011;36308;46.312;25.288;2022-07-06T00:48:38;13.93;;;12.30;;
50393;SDS011;36308;46.312;25.288;2022-07-06T00:51:03;14.73;;;11.70;;
50393;SDS011;36308;46.312;25.288;2022-07-06T00:53:29;16.67;;;12.63;;
50393;SDS011;36308;46.312;25.288;2022-07-06T00:55:55;16.20;;;12.95;;
50393;SDS011;36308;46.312;25.288;2022-07-06T00:58:20;15.48;;;13.00;;
50393;SDS011;36308;46.312;25.288;2022-07-06T01:00:46;15.27;;;12.52;;
50393;SDS011;36308;46.312;25.288;2022-07-06T01:03:11;15.43;;;12.35;;
50393;SDS011;36308;46.312;25.288;2022-07-06T01:05:37;13.60;;;11.70;;
50393;SDS011;36308;46.312;25.288;2022-07-06T01:08:02;16.23;;;12.18;;
50393;SDS011;36308;46.312;25.288;2022-07-06T01:10:28;16.50;;;12.82;;
50393;SDS011;36308;46.312;25.288;2022-07-06T01:12:53;15.60;;;11.75;;
50393;SDS011;36308;46.312;25.288;2022-07-06T01:15:20;14.13;;;10.57;;
50393;SDS011;36308;46.312;25.288;2022-07-06T01:20:50;15.02;;;11.18;;
50393;SDS011;36308;46.312;25.288;2022-07-06T01:23:16;13.68;;;10.65;;
50393;SDS011;36308;46.312;25.288;2022-07-06T01:25:41;15.52;;;11.70;;
50393;SDS011;36308;46.312;25.288;2022-07-06T01:28:07;15.40;;;11.07;;
50393;SDS011;36308;46.312;25.288;2022-07-06T01:30:32;16.63;;;11.50;;
50393;SDS011;36308;46.312;25.288;2022-07-06T01:32:58;13.90;;;10.50;;
50393;SDS011;36308;46.312;25.288;2022-07-06T01:35:23;14.02;;;11.68;;
50393;SDS011;36308;46.312;25.288;2022-07-06T01:37:51;10.25;;;8.02;;
50393;SDS011;36308;46.312;25.288;2022-07-06T01:40:16;8.02;;;7.07;;
50393;SDS011;36308;46.312;25.288;2022-07-06T01:42:42;8.65;;;7.20;;
50393;SDS011;36308;46.312;25.288;2022-07-06T01:45:08;7.82;;;6.05;;
50393;SDS011;36308;46.312;25.288;2022-07-06T01:47:41;12.18;;;6.90;;
50393;SDS011;36308;46.312;25.288;2022-07-06T01:52:33;8.13;;;5.90;;
50393;SDS011;36308;46.312;25.288;2022-07-06T01:55:00;11.60;;;6.53;;
50393;SDS011;36308;46.312;25.288;2022-07-06T01:57:26;8.15;;;6.03;;
50393;SDS011;36308;46.312;25.288;2022-07-06T01:59:51;9.10;;;5.93;;
50393;SDS011;36308;46.312;25.288;2022-07-06T02:02:16;10.18;;;5.72;;
50393;SDS011;36308;46.312;25.288;2022-07-06T02:04:42;7.80;;;5.32;;
50393;SDS011;36308;46.312;25.288;2022-07-06T02:07:08;5.70;;;5.10;;
50393;SDS011;36308;46.312;25.288;2022-07-06T02:09:33;5.97;;;4.75;;
50393;SDS011;36308;46.312;25.288;2022-07-06T02:11:59;7.13;;;4.75;;
50393;SDS011;36308;46.312;25.288;2022-07-06T02:14:24;6.32;;;4.90;;
50393;SDS011;36308;46.312;25.288;2022-07-06T02:16:50;5.70;;;4.55;;
50393;SDS011;36308;46.312;25.288;2022-07-06T02:21:50;6.78;;;4.82;;
50393;SDS011;36308;46.312;25.288;2022-07-06T02:24:15;6.75;;;5.30;;
50393;SDS011;36308;46.312;25.288;2022-07-06T02:26:41;9.93;;;7.25;;
50393;SDS011;36308;46.312;25.288;2022-07-06T02:29:06;10.52;;;7.18;;
50393;SDS011;36308;46.312;25.288;2022-07-06T02:31:32;15.70;;;9.13;;
50393;SDS011;36308;46.312;25.288;2022-07-06T02:33:58;10.95;;;8.73;;
50393;SDS011;36308;46.312;25.288;2022-07-06T02:36:23;10.57;;;9.10;;
50393;SDS011;36308;46.312;25.288;2022-07-06T02:38:48;11.52;;;8.63;;
50393;SDS011;36308;46.312;25.288;2022-07-06T02:41:14;11.02;;;8.60;;
50393;SDS011;36308;46.312;25.288;2022-07-06T02:43:39;10.18;;;8.13;;
50393;SDS011;36308;46.312;25.288;2022-07-06T02:46:05;12.15;;;8.68;;
50393;SDS011;36308;46.312;25.288;2022-07-06T02:48:30;10.05;;;7.95;;
50393;SDS011;36308;46.312;25.288;2022-07-06T02:50:56;14.60;;;8.45;;
50393;SDS011;36308;46.312;25.288;2022-07-06T02:53:23;12.85;;;8.63;;
50393;SDS011;36308;46.312;25.288;2022-07-06T02:55:49;15.10;;;9.07;;
50393;SDS011;36308;46.312;25.288;2022-07-06T02:58:14;11.63;;;8.93;;
50393;SDS011;36308;46.312;25.288;2022-07-06T03:00:40;10.68;;;8.75;;
50393;SDS011;36308;46.312;25.288;2022-07-06T03:03:05;12.68;;;9.15;;
50393;SDS011;36308;46.312;25.288;2022-07-06T03:05:30;11.50;;;8.43;;
50393;SDS011;36308;46.312;25.288;2022-07-06T03:07:56;10.40;;;8.25;;
50393;SDS011;36308;46.312;25.288;2022-07-06T03:10:21;10.77;;;8.65;;
50393;SDS011;36308;46.312;25.288;2022-07-06T03:12:47;13.68;;;9.55;;
50393;SDS011;36308;46.312;25.288;2022-07-06T03:18:16;13.85;;;9.77;;
50393;SDS011;36308;46.312;25.288;2022-07-06T03:20:41;13.55;;;9.65;;
50393;SDS011;36308;46.312;25.288;2022-07-06T03:23:06;14.75;;;9.98;;
50393;SDS011;36308;46.312;25.288;2022-07-06T03:25:32;13.68;;;10.35;;
50393;SDS011;36308;46.312;25.288;2022-07-06T03:27:57;12.45;;;10.07;;
50393;SDS011;36308;46.312;25.288;2022-07-06T03:30:23;15.35;;;11.82;;
50393;SDS011;36308;46.312;25.288;2022-07-06T03:32:48;18.52;;;12.48;;
50393;SDS011;36308;46.312;25.288;2022-07-06T03:35:14;18.75;;;11.80;;
50393;SDS011;36308;46.312;25.288;2022-07-06T03:37:39;18.27;;;12.02;;
50393;SDS011;36308;46.312;25.288;2022-07-06T03:40:05;17.15;;;11.80;;
50393;SDS011;36308;46.312;25.288;2022-07-06T03:42:31;17.40;;;11.63;;
50393;SDS011;36308;46.312;25.288;2022-07-06T03:44:56;16.80;;;11.60;;
50393;SDS011;36308;46.312;25.288;2022-07-06T03:47:22;14.52;;;11.30;;
50393;SDS011;36308;46.312;25.288;2022-07-06T03:49:47;16.52;;;11.00;;
50393;SDS011;36308;46.312;25.288;2022-07-06T03:52:13;15.15;;;11.18;;
50393;SDS011;36308;46.312;25.288;2022-07-06T03:54:38;14.25;;;10.82;;
50393;SDS011;36308;46.312;25.288;2022-07-06T03:57:03;16.70;;;10.65;;
50393;SDS011;36308;46.312;25.288;2022-07-06T03:59:29;13.10;;;10.05;;
50393;SDS011;36308;46.312;25.288;2022-07-06T04:01:54;11.32;;;9.80;;
50393;SDS011;36308;46.312;25.288;2022-07-06T04:04:20;13.65;;;9.20;;
50393;SDS011;36308;46.312;25.288;2022-07-06T04:06:45;11.63;;;9.05;;
50393;SDS011;36308;46.312;25.288;2022-07-06T04:09:11;15.75;;;8.68;;
50393;SDS011;36308;46.312;25.288;2022-07-06T04:11:36;10.93;;;7.22;;
50393;SDS011;36308;46.312;25.288;2022-07-06T04:14:02;9.98;;;7.47;;
50393;SDS011;36308;46.312;25.288;2022-07-06T04:19:49;8.68;;;6.10;;
50393;SDS011;36308;46.312;25.288;2022-07-06T04:22:14;7.13;;;6.15;;
50393;SDS011;36308;46.312;25.288;2022-07-06T04:24:40;10.02;;;5.72;;
50393;SDS011;36308;46.312;25.288;2022-07-06T04:30:04;6.85;;;4.18;;
50393;SDS011;36308;46.312;25.288;2022-07-06T04:32:32;5.15;;;3.78;;
50393;SDS011;36308;46.312;25.288;2022-07-06T04:34:57;5.57;;;4.00;;
50393;SDS011;36308;46.312;25.288;2022-07-06T04:37:23;6.68;;;3.80;;
50393;SDS011;36308;46.312;25.288;2022-07-06T04:39:48;7.25;;;3.85;;
50393;SDS011;36308;46.312;25.288;2022-07-06T04:42:13;6.93;;;3.72;;
50393;SDS011;36308;46.312;25.288;2022-07-06T04:44:39;5.82;;;3.92;;
50393;SDS011;36308;46.312;25.288;2022-07-06T04:47:05;5.68;;;3.50;;
50393;SDS011;36308;46.312;25.288;2022-07-06T04:49:30;7.10;;;4.10;;
50393;SDS011;36308;46.312;25.288;2022-07-06T04:51:56;4.95;;;3.38;;
50393;SDS011;36308;46.312;25.288;2022-07-06T04:54:21;4.55;;;3.63;;
50393;SDS011;36308;46.312;25.288;2022-07-06T04:59:34;5.30;;;3.70;;
50393;SDS011;36308;46.312;25.288;2022-07-06T05:01:59;3.20;;;2.85;;
50393;SDS011;36308;46.312;25.288;2022-07-06T05:04:25;5.25;;;3.40;;
50393;SDS011;36308;46.312;25.288;2022-07-06T05:06:50;4.85;;;3.47;;
50393;SDS011;36308;46.312;25.288;2022-07-06T05:09:16;6.15;;;3.92;;
50393;SDS011;36308;46.312;25.288;2022-07-06T05:11:41;4.32;;;3.17;;
50393;SDS011;36308;46.312;25.288;2022-07-06T05:14:07;5.40;;;3.85;;
50393;SDS011;36308;46.312;25.288;2022-07-06T05:16:32;5.80;;;3.20;;
50393;SDS011;36308;46.312;25.288;2022-07-06T05:18:58;5.75;;;3.60;;
50393;SDS011;36308;46.312;25.288;2022-07-06T05:21:23;6.25;;;3.40;;
50393;SDS011;36308;46.312;25.288;2022-07-06T05:23:49;4.13;;;3.28;;
50393;SDS011;36308;46.312;25.288;2022-07-06T05:26:15;5.00;;;3.47;;
50393;SDS011;36308;46.312;25.288;2022-07-06T05:28:40;4.05;;;2.95;;
50393;SDS011;36308;46.312;25.288;2022-07-06T05:34:01;4.00;;;3.00;;
50393;SDS011;36308;46.312;25.288;2022-07-06T05:36:27;4.63;;;3.40;;
50393;SDS011;36308;46.312;25.288;2022-07-06T05:38:58;3.78;;;2.95;;
50393;SDS011;36308;46.312;25.288;2022-07-06T05:41:24;5.50;;;3.13;;
50393;SDS011;36308;46.312;25.288;2022-07-06T05:43:49;3.90;;;2.97;;
50393;SDS011;36308;46.312;25.288;2022-07-06T05:46:14;6.75;;;3.75;;
50393;SDS011;36308;46.312;25.288;2022-07-06T05:48:40;5.20;;;3.55;;
50393;SDS011;36308;46.312;25.288;2022-07-06T05:51:24;4.00;;;3.40;;
50393;SDS011;36308;46.312;25.288;2022-07-06T05:53:50;5.20;;;3.80;;
50393;SDS011;36308;46.312;25.288;2022-07-06T05:56:15;5.80;;;3.60;;
50393;SDS011;36308;46.312;25.288;2022-07-06T05:58:40;6.95;;;3.78;;
50393;SDS011;36308;46.312;25.288;2022-07-06T06:01:06;6.25;;;3.28;;
50393;SDS011;36308;46.312;25.288;2022-07-06T06:03:32;3.95;;;3.33;;
50393;SDS011;36308;46.312;25.288;2022-07-06T06:08:52;5.88;;;3.30;;
50393;SDS011;36308;46.312;25.288;2022-07-06T06:11:35;3.85;;;3.17;;
50393;SDS011;36308;46.312;25.288;2022-07-06T06:14:00;5.20;;;3.10;;
50393;SDS011;36308;46.312;25.288;2022-07-06T06:16:26;7.60;;;3.83;;
50393;SDS011;36308;46.312;25.288;2022-07-06T06:18:51;7.30;;;4.05;;
50393;SDS011;36308;46.312;25.288;2022-07-06T06:21:17;3.38;;;3.05;;
50393;SDS011;36308;46.312;25.288;2022-07-06T06:23:42;3.67;;;3.13;;
50393;SDS011;36308;46.312;25.288;2022-07-06T06:26:08;3.78;;;3.20;;
50393;SDS011;36308;46.312;25.288;2022-07-06T06:28:33;3.38;;;3.08;;
50393;SDS011;36308;46.312;25.288;2022-07-06T06:30:59;4.38;;;3.13;;
50393;SDS011;36308;46.312;25.288;2022-07-06T06:33:24;4.47;;;3.15;;
50393;SDS011;36308;46.312;25.288;2022-07-06T06:35:51;4.38;;;3.08;;
50393;SDS011;36308;46.312;25.288;2022-07-06T06:38:18;3.55;;;2.80;;
50393;SDS011;36308;46.312;25.288;2022-07-06T06:40:46;5.25;;;2.95;;
50393;SDS011;36308;46.312;25.288;2022-07-06T06:43:12;4.88;;;3.08;;
50393;SDS011;36308;46.312;25.288;2022-07-06T06:45:37;14.05;;;7.78;;
50393;SDS011;36308;46.312;25.288;2022-07-06T06:48:03;20.00;;;13.18;;
50393;SDS011;36308;46.312;25.288;2022-07-06T06:50:29;9.20;;;5.53;;
50393;SDS011;36308;46.312;25.288;2022-07-06T06:52:54;8.40;;;4.70;;
50393;SDS011;36308;46.312;25.288;2022-07-06T06:55:20;4.65;;;3.60;;
50393;SDS011;36308;46.312;25.288;2022-07-06T06:57:45;4.47;;;3.60;;
50393;SDS011;36308;46.312;25.288;2022-07-06T07:00:11;10.43;;;5.75;;
50393;SDS011;36308;46.312;25.288;2022-07-06T07:02:37;8.75;;;4.93;;
50393;SDS011;36308;46.312;25.288;2022-07-06T07:05:04;13.77;;;7.47;;
50393;SDS011;36308;46.312;25.288;2022-07-06T07:07:30;4.15;;;3.50;;
50393;SDS011;36308;46.312;25.288;2022-07-06T07:10:12;5.05;;;3.47;;
50393;SDS011;36308;46.312;25.288;2022-07-06T07:12:46;3.92;;;3.25;;
50393;SDS011;36308;46.312;25.288;2022-07-06T07:15:12;4.97;;;3.53;;
50393;SDS011;36308;46.312;25.288;2022-07-06T07:17:39;9.75;;;6.10;;
50393;SDS011;36308;46.312;25.288;2022-07-06T07:20:05;7.43;;;5.07;;
50393;SDS011;36308;46.312;25.288;2022-07-06T07:22:31;6.78;;;4.47;;
50393;SDS011;36308;46.312;25.288;2022-07-06T07:24:57;9.55;;;6.38;;
50393;SDS011;36308;46.312;25.288;2022-07-06T07:27:24;6.97;;;4.00;;
50393;SDS011;36308;46.312;25.288;2022-07-06T07:29:50;5.90;;;4.68;;
50393;SDS011;36308;46.312;25.288;2022-07-06T07:32:15;4.35;;;3.47;;
50393;SDS011;36308;46.312;25.288;2022-07-06T07:34:41;3.47;;;3.08;;
50393;SDS011;36308;46.312;25.288;2022-07-06T07:37:06;4.05;;;3.28;;
50393;SDS011;36308;46.312;25.288;2022-07-06T07:39:32;6.22;;;3.15;;
50393;SDS011;36308;46.312;25.288;2022-07-06T07:41:57;6.93;;;4.40;;
50393;SDS011;36308;46.312;25.288;2022-07-06T07:44:35;7.93;;;5.75;;
50393;SDS011;36308;46.312;25.288;2022-07-06T07:47:00;5.00;;;4.20;;
50393;SDS011;36308;46.312;25.288;2022-07-06T07:49:26;7.63;;;3.80;;
50393;SDS011;36308;46.312;25.288;2022-07-06T07:51:51;8.32;;;3.45;;
50393;SDS011;36308;46.312;25.288;2022-07-06T07:54:16;4.53;;;3.30;;
50393;SDS011;36308;46.312;25.288;2022-07-06T07:56:42;5.35;;;3.33;;
50393;SDS011;36308;46.312;25.288;2022-07-06T07:59:08;4.18;;;3.40;;
50393;SDS011;36308;46.312;25.288;2022-07-06T08:01:34;5.18;;;3.40;;
50393;SDS011;36308;46.312;25.288;2022-07-06T08:04:02;9.20;;;4.43;;
50393;SDS011;36308;46.312;25.288;2022-07-06T08:06:27;4.60;;;3.50;;
50393;SDS011;36308;46.312;25.288;2022-07-06T08:08:53;6.80;;;3.95;;
50393;SDS011;36308;46.312;25.288;2022-07-06T08:14:33;5.75;;;4.13;;
50393;SDS011;36308;46.312;25.288;2022-07-06T08:16:59;7.53;;;4.60;;
50393;SDS011;36308;46.312;25.288;2022-07-06T08:19:24;5.88;;;4.20;;
50393;SDS011;36308;46.312;25.288;2022-07-06T08:21:53;5.18;;;3.78;;
50393;SDS011;36308;46.312;25.288;2022-07-06T08:24:18;5.22;;;3.60;;
50393;SDS011;36308;46.312;25.288;2022-07-06T08:26:44;4.85;;;3.72;;
50393;SDS011;36308;46.312;25.288;2022-07-06T08:29:10;4.63;;;3.92;;
50393;SDS011;36308;46.312;25.288;2022-07-06T08:31:35;7.05;;;3.80;;
50393;SDS011;36308;46.312;25.288;2022-07-06T08:34:01;4.95;;;4.05;;
50393;SDS011;36308;46.312;25.288;2022-07-06T08:36:27;5.20;;;4.05;;
50393;SDS011;36308;46.312;25.288;2022-07-06T08:38:52;3.92;;;3.50;;
50393;SDS011;36308;46.312;25.288;2022-07-06T08:41:20;5.30;;;3.90;;
50393;SDS011;36308;46.312;25.288;2022-07-06T08:43:48;5.43;;;3.90;;
50393;SDS011;36308;46.312;25.288;2022-07-06T08:46:15;7.63;;;4.80;;
50393;SDS011;36308;46.312;25.288;2022-07-06T08:48:41;13.82;;;6.53;;
50393;SDS011;36308;46.312;25.288;2022-07-06T08:51:07;6.82;;;5.28;;
50393;SDS011;36308;46.312;25.288;2022-07-06T08:53:33;7.63;;;4.20;;
50393;SDS011;36308;46.312;25.288;2022-07-06T08:55:59;5.80;;;4.00;;
50393;SDS011;36308;46.312;25.288;2022-07-06T08:58:26;4.68;;;3.60;;
50393;SDS011;36308;46.312;25.288;2022-07-06T09:00:53;5.32;;;3.92;;
50393;SDS011;36308;46.312;25.288;2022-07-06T09:03:20;4.20;;;3.75;;
50393;SDS011;36308;46.312;25.288;2022-07-06T09:05:46;4.20;;;3.72;;
50393;SDS011;36308;46.312;25.288;2022-07-06T09:08:12;7.05;;;4.05;;
50393;SDS011;36308;46.312;25.288;2022-07-06T09:10:38;5.80;;;4.03;;
50393;SDS011;36308;46.312;25.288;2022-07-06T09:13:06;7.18;;;4.20;;
50393;SDS011;36308;46.312;25.288;2022-07-06T09:15:34;4.72;;;3.88;;
50393;SDS011;36308;46.312;25.288;2022-07-06T09:21:08;6.38;;;4.07;;
50393;SDS011;36308;46.312;25.288;2022-07-06T09:23:35;3.90;;;3.50;;
50393;SDS011;36308;46.312;25.288;2022-07-06T09:26:10;6.43;;;3.83;;
50393;SDS011;36308;46.312;25.288;2022-07-06T09:28:42;5.20;;;4.00;;
50393;SDS011;36308;46.312;25.288;2022-07-06T09:33:35;5.18;;;3.20;;
50393;SDS011;36308;46.312;25.288;2022-07-06T09:36:00;4.53;;;3.88;;
50393;SDS011;36308;46.312;25.288;2022-07-06T09:38:27;6.35;;;3.60;;
50393;SDS011;36308;46.312;25.288;2022-07-06T09:40:53;4.57;;;3.05;;
50393;SDS011;36308;46.312;25.288;2022-07-06T09:43:20;6.05;;;3.72;;
50393;SDS011;36308;46.312;25.288;2022-07-06T09:45:51;3.72;;;3.20;;
50393;SDS011;36308;46.312;25.288;2022-07-06T09:48:18;4.65;;;3.17;;
50393;SDS011;36308;46.312;25.288;2022-07-06T09:53:20;4.90;;;3.20;;
50393;SDS011;36308;46.312;25.288;2022-07-06T09:55:47;4.00;;;3.35;;
50393;SDS011;36308;46.312;25.288;2022-07-06T09:58:14;6.38;;;3.50;;
50393;SDS011;36308;46.312;25.288;2022-07-06T10:00:41;8.45;;;3.67;;
50393;SDS011;36308;46.312;25.288;2022-07-06T10:03:08;4.20;;;3.53;;
50393;SDS011;36308;46.312;25.288;2022-07-06T10:08:45;3.83;;;3.30;;
50393;SDS011;36308;46.312;25.288;2022-07-06T10:11:10;3.47;;;3.15;;
50393;SDS011;36308;46.312;25.288;2022-07-06T10:13:39;4.90;;;3.38;;
50393;SDS011;36308;46.312;25.288;2022-07-06T10:16:07;4.20;;;3.42;;
50393;SDS011;36308;46.312;25.288;2022-07-06T10:18:33;6.80;;;3.95;;
50393;SDS011;36308;46.312;25.288;2022-07-06T10:20:59;5.30;;;3.50;;
50393;SDS011;36308;46.312;25.288;2022-07-06T10:23:24;5.32;;;3.42;;
50393;SDS011;36308;46.312;25.288;2022-07-06T10:25:51;5.10;;;3.65;;
50393;SDS011;36308;46.312;25.288;2022-07-06T10:28:20;5.15;;;3.70;;
50393;SDS011;36308;46.312;25.288;2022-07-06T10:30:45;4.05;;;3.55;;
50393;SDS011;36308;46.312;25.288;2022-07-06T10:33:14;5.60;;;3.60;;
50393;SDS011;36308;46.312;25.288;2022-07-06T10:38:31;4.38;;;3.08;;
50393;SDS011;36308;46.312;25.288;2022-07-06T10:41:02;4.63;;;3.15;;
50393;SDS011;36308;46.312;25.288;2022-07-06T10:45:58;5.28;;;3.15;;
50393;SDS011;36308;46.312;25.288;2022-07-06T10:48:36;3.50;;;3.20;;
50393;SDS011;36308;46.312;25.288;2022-07-06T10:51:24;4.82;;;3.42;;
50393;SDS011;36308;46.312;25.288;2022-07-06T10:53:55;4.68;;;3.53;;
50393;SDS011;36308;46.312;25.288;2022-07-06T10:56:31;4.82;;;3.42;;
50393;SDS011;36308;46.312;25.288;2022-07-06T10:59:22;3.78;;;3.42;;
50393;SDS011;36308;46.312;25.288;2022-07-06T11:04:43;6.25;;;3.60;;
50393;SDS011;36308;46.312;25.288;2022-07-06T11:07:11;4.97;;;3.53;;
50393;SDS011;36308;46.312;25.288;2022-07-06T11:09:59;5.00;;;3.50;;
50393;SDS011;36308;46.312;25.288;2022-07-06T11:12:25;3.72;;;3.30;;
50393;SDS011;36308;46.312;25.288;2022-07-06T11:14:51;4.10;;;3.35;;
50393;SDS011;36308;46.312;25.288;2022-07-06T11:17:18;5.00;;;3.80;;
50393;SDS011;36308;46.312;25.288;2022-07-06T11:19:50;4.70;;;3.60;;
50393;SDS011;36308;46.312;25.288;2022-07-06T11:22:21;4.40;;;3.70;;
50393;SDS011;36308;46.312;25.288;2022-07-06T11:24:49;3.85;;;3.40;;
50393;SDS011;36308;46.312;25.288;2022-07-06T11:27:16;4.55;;;3.25;;
50393;SDS011;36308;46.312;25.288;2022-07-06T11:29:42;4.15;;;3.50;;
50393;SDS011;36308;46.312;25.288;2022-07-06T11:32:10;4.35;;;3.50;;
50393;SDS011;36308;46.312;25.288;2022-07-06T11:34:37;3.80;;;3.38;;
50393;SDS011;36308;46.312;25.288;2022-07-06T11:37:08;5.20;;;3.40;;
50393;SDS011;36308;46.312;25.288;2022-07-06T11:39:41;5.43;;;3.50;;
50393;SDS011;36308;46.312;25.288;2022-07-06T11:44:55;3.67;;;3.00;;
50393;SDS011;36308;46.312;25.288;2022-07-06T11:47:20;4.22;;;2.95;;
50393;SDS011;36308;46.312;25.288;2022-07-06T11:49:49;5.93;;;3.53;;
50393;SDS011;36308;46.312;25.288;2022-07-06T11:54:49;3.67;;;3.38;;
50393;SDS011;36308;46.312;25.288;2022-07-06T11:57:22;5.20;;;3.38;;
50393;SDS011;36308;46.312;25.288;2022-07-06T11:59:49;4.30;;;3.60;;
50393;SDS011;36308;46.312;25.288;2022-07-06T12:02:16;4.20;;;3.38;;
50393;SDS011;36308;46.312;25.288;2022-07-06T12:04:43;4.93;;;3.80;;
50393;SDS011;36308;46.312;25.288;2022-07-06T12:07:11;4.38;;;3.70;;
50393;SDS011;36308;46.312;25.288;2022-07-06T12:09:39;4.75;;;3.55;;
50393;SDS011;36308;46.312;25.288;2022-07-06T12:12:06;5.18;;;4.05;;
50393;SDS011;36308;46.312;25.288;2022-07-06T12:14:34;4.03;;;3.58;;
50393;SDS011;36308;46.312;25.288;2022-07-06T12:17:05;4.32;;;3.28;;
50393;SDS011;36308;46.312;25.288;2022-07-06T12:19:31;3.72;;;2.78;;
50393;SDS011;36308;46.312;25.288;2022-07-06T12:21:58;4.28;;;2.88;;
50393;SDS011;36308;46.312;25.288;2022-07-06T12:24:26;5.90;;;3.15;;
50393;SDS011;36308;46.312;25.288;2022-07-06T12:26:55;5.10;;;3.05;;
50393;SDS011;36308;46.312;25.288;2022-07-06T12:29:21;2.90;;;2.55;;
50393;SDS011;36308;46.312;25.288;2022-07-06T12:34:14;4.72;;;3.50;;
50393;SDS011;36308;46.312;25.288;2022-07-06T12:36:44;6.15;;;3.85;;
50393;SDS011;36308;46.312;25.288;2022-07-06T12:39:14;4.30;;;3.10;;
50393;SDS011;36308;46.312;25.288;2022-07-06T12:41:45;4.10;;;3.22;;
50393;SDS011;36308;46.312;25.288;2022-07-06T12:44:19;3.53;;;3.20;;
50393;SDS011;36308;46.312;25.288;2022-07-06T12:46:47;3.45;;;2.72;;
50393;SDS011;36308;46.312;25.288;2022-07-06T12:54:26;3.20;;;2.90;;
50393;SDS011;36308;46.312;25.288;2022-07-06T12:59:25;3.22;;;2.80;;
50393;SDS011;36308;46.312;25.288;2022-07-06T13:01:51;3.67;;;2.88;;
50393;SDS011;36308;46.312;25.288;2022-07-06T13:04:21;4.40;;;2.92;;
50393;SDS011;36308;46.312;25.288;2022-07-06T13:06:47;6.97;;;3.20;;
50393;SDS011;36308;46.312;25.288;2022-07-06T13:09:12;4.60;;;2.83;;
50393;SDS011;36308;46.312;25.288;2022-07-06T13:11:39;3.55;;;2.60;;
50393;SDS011;36308;46.312;25.288;2022-07-06T13:14:05;4.55;;;2.63;;
50393;SDS011;36308;46.312;25.288;2022-07-06T13:16:31;3.28;;;2.95;;
50393;SDS011;36308;46.312;25.288;2022-07-06T13:18:59;4.00;;;2.95;;
50393;SDS011;36308;46.312;25.288;2022-07-06T13:21:25;3.35;;;2.70;;
50393;SDS011;36308;46.312;25.288;2022-07-06T13:23:51;3.35;;;2.85;;
50393;SDS011;36308;46.312;25.288;2022-07-06T13:26:16;3.42;;;3.13;;
50393;SDS011;36308;46.312;25.288;2022-07-06T13:28:42;4.03;;;3.03;;
50393;SDS011;36308;46.312;25.288;2022-07-06T13:31:07;3.47;;;2.70;;
50393;SDS011;36308;46.312;25.288;2022-07-06T13:36:21;3.10;;;2.67;;
50393;SDS011;36308;46.312;25.288;2022-07-06T13:38:46;3.97;;;2.88;;
50393;SDS011;36308;46.312;25.288;2022-07-06T13:41:12;3.08;;;2.78;;
50393;SDS011;36308;46.312;25.288;2022-07-06T13:43:37;3.15;;;2.67;;
50393;SDS011;36308;46.312;25.288;2022-07-06T13:46:03;5.82;;;3.00;;
50393;SDS011;36308;46.312;25.288;2022-07-06T13:48:29;4.03;;;2.65;;
50393;SDS011;36308;46.312;25.288;2022-07-06T13:50:56;3.95;;;2.67;;
50393;SDS011;36308;46.312;25.288;2022-07-06T13:53:21;5.30;;;2.65;;
50393;SDS011;36308;46.312;25.288;2022-07-06T13:55:47;6.43;;;2.83;;
50393;SDS011;36308;46.312;25.288;2022-07-06T13:58:12;3.83;;;2.75;;
50393;SDS011;36308;46.312;25.288;2022-07-06T14:00:38;4.57;;;3.15;;
50393;SDS011;36308;46.312;25.288;2022-07-06T14:03:03;3.90;;;3.10;;
50393;SDS011;36308;46.312;25.288;2022-07-06T14:05:29;2.90;;;2.53;;
50393;SDS011;36308;46.312;25.288;2022-07-06T14:07:55;4.70;;;2.85;;
50393;SDS011;36308;46.312;25.288;2022-07-06T14:10:21;3.65;;;3.05;;
50393;SDS011;36308;46.312;25.288;2022-07-06T14:12:46;3.03;;;2.72;;
50393;SDS011;36308;46.312;25.288;2022-07-06T14:15:12;3.35;;;2.72;;
50393;SDS011;36308;46.312;25.288;2022-07-06T14:17:37;3.45;;;2.67;;
50393;SDS011;36308;46.312;25.288;2022-07-06T14:20:03;3.50;;;2.70;;
50393;SDS011;36308;46.312;25.288;2022-07-06T14:22:29;3.25;;;2.67;;
50393;SDS011;36308;46.312;25.288;2022-07-06T14:24:55;3.35;;;2.50;;
50393;SDS011;36308;46.312;25.288;2022-07-06T14:27:20;2.30;;;2.10;;
50393;SDS011;36308;46.312;25.288;2022-07-06T14:29:46;2.50;;;2.22;;
50393;SDS011;36308;46.312;25.288;2022-07-06T14:34:46;3.78;;;2.20;;
50393;SDS011;36308;46.312;25.288;2022-07-06T14:37:11;2.83;;;2.17;;
50393;SDS011;36308;46.312;25.288;2022-07-06T14:39:37;2.53;;;2.20;;
50393;SDS011;36308;46.312;25.288;2022-07-06T14:42:03;4.35;;;1.92;;
50393;SDS011;36308;46.312;25.288;2022-07-06T14:44:29;2.28;;;2.03;;
50393;SDS011;36308;46.312;25.288;2022-07-06T14:46:54;3.22;;;2.60;;
50393;SDS011;36308;46.312;25.288;2022-07-06T14:49:19;2.55;;;2.30;;
50393;SDS011;36308;46.312;25.288;2022-07-06T14:51:45;1.85;;;1.75;;
50393;SDS011;36308;46.312;25.288;2022-07-06T14:54:10;2.22;;;2.03;;
50393;SDS011;36308;46.312;25.288;2022-07-06T14:56:36;2.13;;;1.90;;
50393;SDS011;36308;46.312;25.288;2022-07-06T14:59:02;2.13;;;1.70;;
50393;SDS011;36308;46.312;25.288;2022-07-06T15:01:27;1.60;;;1.50;;
50393;SDS011;36308;46.312;25.288;2022-07-06T15:03:53;2.15;;;1.23;;
50393;SDS011;36308;46.312;25.288;2022-07-06T15:06:18;1.60;;;1.50;;
50393;SDS011;36308;46.312;25.288;2022-07-06T15:08:44;1.80;;;1.67;;
50393;SDS011;36308;46.312;25.288;2022-07-06T15:11:09;1.77;;;1.67;;
50393;SDS011;36308;46.312;25.288;2022-07-06T15:13:34;2.70;;;1.77;;
50393;SDS011;36308;46.312;25.288;2022-07-06T15:16:00;1.80;;;1.63;;
50393;SDS011;36308;46.312;25.288;2022-07-06T15:18:26;1.67;;;1.40;;
50393;SDS011;36308;46.312;25.288;2022-07-06T15:20:52;4.03;;;1.80;;
50393;SDS011;36308;46.312;25.288;2022-07-06T15:23:17;3.28;;;1.80;;
50393;SDS011;36308;46.312;25.288;2022-07-06T15:28:28;2.55;;;1.50;;
50393;SDS011;36308;46.312;25.288;2022-07-06T15:30:54;2.35;;;1.85;;
50393;SDS011;36308;46.312;25.288;2022-07-06T15:33:20;4.38;;;2.00;;
50393;SDS011;36308;46.312;25.288;2022-07-06T15:35:46;3.17;;;2.13;;
50393;SDS011;36308;46.312;25.288;2022-07-06T15:38:12;3.30;;;2.10;;
50393;SDS011;36308;46.312;25.288;2022-07-06T15:40:38;3.88;;;1.98;;